Time,TemperatureF,DewpointF,PressureIn,WindDirection,WindDirectionDegrees,WindSpeedMPH,WindSpeedGustMPH,Humidity,HourlyPrecipIn,Conditions,Clouds,dailyrainin,SolarRadiationWatts/m^2,SoftwareType,DateUTC
2013-06-20 00:02:00,67.0,53.0,-100.00,SE,126,6.0,14.0,60,0.00,,,0.00,0.000000,,2013-06-20 04:02:00,
2013-06-20 00:11:00,67.0,53.0,-100.00,SE,126,6.0,14.0,60,0.00,,,0.00,0.000000,,2013-06-20 04:11:00,
2013-06-20 00:34:00,64.0,52.0,-100.00,ESE,118,6.0,10.0,64,0.00,,,0.00,0.000000,,2013-06-20 04:34:00,
2013-06-20 00:44:00,64.0,52.0,-100.00,ESE,118,6.0,10.0,64,0.00,,,0.00,0.000000,,2013-06-20 04:44:00,
2013-06-20 00:54:00,64.0,52.0,-100.00,ESE,118,6.0,10.0,64,0.00,,,0.00,0.000000,,2013-06-20 04:54:00,
2013-06-20 01:02:00,64.0,52.0,-100.00,ESE,118,6.0,10.0,64,0.00,,,0.00,0.000000,,2013-06-20 05:02:00,
2013-06-20 01:12:00,64.0,52.0,-100.00,ESE,118,6.0,10.0,64,0.00,,,0.00,0.000000,,2013-06-20 05:12:00,
2013-06-20 01:33:00,62.0,51.0,-100.00,ESE,121,5.0,8.0,68,0.00,,,0.00,0.000000,,2013-06-20 05:33:00,
2013-06-20 01:44:00,62.0,51.0,-100.00,ESE,121,5.0,8.0,68,0.00,,,0.00,0.000000,,2013-06-20 05:44:00,
2013-06-20 01:53:00,62.0,51.0,-100.00,ESE,121,5.0,8.0,68,0.00,,,0.00,0.000000,,2013-06-20 05:53:00,
2013-06-20 02:02:00,62.0,51.0,-100.00,ESE,121,5.0,8.0,68,0.00,,,0.00,0.000000,,2013-06-20 06:02:00,
2013-06-20 02:11:00,62.0,51.0,-100.00,ESE,121,5.0,8.0,68,0.00,,,0.00,0.000000,,2013-06-20 06:11:00,
2013-06-20 02:43:00,61.0,51.0,-100.00,SE,137,3.0,7.0,69,0.00,,,0.00,0.000000,,2013-06-20 06:43:00,
2013-06-20 02:53:00,61.0,51.0,-100.00,SE,137,3.0,7.0,69,0.00,,,0.00,0.000000,,2013-06-20 06:53:00,
2013-06-20 03:01:00,61.0,51.0,-100.00,SE,137,3.0,7.0,69,0.00,,,0.00,0.000000,,2013-06-20 07:01:00,
2013-06-20 03:12:00,61.0,51.0,-100.00,SE,137,3.0,7.0,69,0.00,,,0.00,0.000000,,2013-06-20 07:12:00,
2013-06-20 03:34:00,60.0,50.0,-100.00,SE,127,2.0,5.0,69,0.00,,,0.00,0.000000,,2013-06-20 07:34:00,
2013-06-20 03:44:00,60.0,50.0,-100.00,SE,127,2.0,5.0,69,0.00,,,0.00,0.000000,,2013-06-20 07:44:00,
2013-06-20 03:53:00,60.0,50.0,-100.00,SE,127,2.0,5.0,69,0.00,,,0.00,0.000000,,2013-06-20 07:53:00,
2013-06-20 04:02:00,60.0,50.0,-100.00,SE,127,2.0,5.0,69,0.00,,,0.00,0.000000,,2013-06-20 08:02:00,
2013-06-20 04:11:00,60.0,50.0,-100.00,SE,127,2.0,5.0,69,0.00,,,0.00,0.000000,,2013-06-20 08:11:00,
2013-06-20 04:43:00,60.0,50.0,-100.00,SE,129,3.0,6.0,70,0.00,,,-99.99,0.000000,,2013-06-20 08:43:00,
2013-06-20 04:53:00,60.0,50.0,-100.00,SE,129,3.0,6.0,70,0.00,,,-99.99,0.000000,,2013-06-20 08:53:00,
2013-06-20 05:02:00,60.0,50.0,-100.00,SE,129,3.0,6.0,70,0.00,,,-99.99,0.000000,,2013-06-20 09:02:00,
2013-06-20 05:12:00,60.0,50.0,-100.00,SE,129,3.0,6.0,70,0.00,,,-99.99,0.000000,,2013-06-20 09:12:00,
2013-06-20 05:43:00,59.0,48.0,-100.00,SE,138,3.0,5.0,68,0.00,,,0.00,0.000000,,2013-06-20 09:43:00,
2013-06-20 05:52:00,59.0,48.0,-100.00,SE,138,3.0,5.0,68,0.00,,,0.00,0.000000,,2013-06-20 09:52:00,
2013-06-20 06:01:00,59.0,48.0,-100.00,SE,138,3.0,5.0,68,0.00,,,0.00,0.000000,,2013-06-20 10:01:00,
2013-06-20 06:11:00,59.0,48.0,-100.00,SE,138,3.0,5.0,68,0.00,,,0.00,0.000000,,2013-06-20 10:11:00,
2013-06-20 06:34:00,60.0,48.0,-100.00,SE,139,4.0,8.0,64,0.00,,,0.00,1.000000,,2013-06-20 10:34:00,
2013-06-20 06:43:00,60.0,48.0,-100.00,SE,139,4.0,8.0,64,0.00,,,0.00,1.000000,,2013-06-20 10:43:00,
2013-06-20 06:53:00,60.0,48.0,-100.00,SE,139,4.0,8.0,64,0.00,,,0.00,1.000000,,2013-06-20 10:53:00,
2013-06-20 07:02:00,60.0,48.0,-100.00,SE,139,4.0,8.0,64,0.00,,,0.00,1.000000,,2013-06-20 11:02:00,
2013-06-20 07:12:00,60.0,48.0,-100.00,SE,139,4.0,8.0,64,0.00,,,0.00,1.000000,,2013-06-20 11:12:00,
2013-06-20 07:43:00,60.0,47.0,-100.00,SE,140,4.0,6.0,63,0.00,,,0.00,21.000000,,2013-06-20 11:43:00,
2013-06-20 07:53:00,60.0,47.0,-100.00,SE,140,4.0,6.0,63,0.00,,,0.00,21.000000,,2013-06-20 11:53:00,
2013-06-20 08:02:00,60.0,47.0,-100.00,SE,140,4.0,6.0,63,0.00,,,0.00,21.000000,,2013-06-20 12:02:00,
2013-06-20 08:11:00,60.0,47.0,-100.00,SE,140,4.0,6.0,63,0.00,,,0.00,21.000000,,2013-06-20 12:11:00,
2013-06-20 08:43:00,63.0,48.0,-100.00,SE,130,6.0,8.0,59,0.00,,,0.00,114.000000,,2013-06-20 12:43:00,
2013-06-20 08:53:00,63.0,48.0,-100.00,SE,130,6.0,8.0,59,0.00,,,0.00,114.000000,,2013-06-20 12:53:00,
2013-06-20 09:02:00,63.0,48.0,-100.00,SE,130,6.0,8.0,59,0.00,,,0.00,114.000000,,2013-06-20 13:02:00,
2013-06-20 09:11:00,63.0,48.0,-100.00,SE,130,6.0,8.0,59,0.00,,,0.00,114.000000,,2013-06-20 13:11:00,
2013-06-20 09:33:00,67.0,51.0,-100.00,SSE,148,5.0,9.0,56,0.00,,,0.00,324.000000,,2013-06-20 13:33:00,
2013-06-20 09:42:00,67.0,51.0,-100.00,SSE,148,5.0,9.0,56,0.00,,,0.00,324.000000,,2013-06-20 13:42:00,
2013-06-20 09:53:00,67.0,51.0,-100.00,SSE,148,5.0,9.0,56,0.00,,,0.00,324.000000,,2013-06-20 13:53:00,
2013-06-20 10:02:00,67.0,51.0,-100.00,SSE,148,5.0,9.0,56,0.00,,,0.00,324.000000,,2013-06-20 14:02:00,
2013-06-20 10:11:00,67.0,51.0,-100.00,SSE,148,5.0,9.0,56,0.00,,,0.00,324.000000,,2013-06-20 14:11:00,
2013-06-20 10:42:00,73.0,56.0,-100.00,SE,132,5.0,8.0,55,0.00,,,0.00,441.000000,,2013-06-20 14:42:00,
2013-06-20 10:53:00,73.0,56.0,-100.00,SE,132,5.0,8.0,55,0.00,,,0.00,441.000000,,2013-06-20 14:53:00,
2013-06-20 11:02:00,73.0,56.0,-100.00,SE,132,5.0,8.0,55,0.00,,,0.00,441.000000,,2013-06-20 15:02:00,
2013-06-20 11:11:00,73.0,56.0,-100.00,SE,132,5.0,8.0,55,0.00,,,0.00,441.000000,,2013-06-20 15:11:00,
2013-06-20 11:43:00,78.0,58.0,-100.00,South,185,6.0,11.0,51,0.00,,,0.00,662.000000,,2013-06-20 15:43:00,
2013-06-20 11:53:00,78.0,58.0,-100.00,South,185,6.0,11.0,51,0.00,,,0.00,662.000000,,2013-06-20 15:53:00,
2013-06-20 12:01:00,78.0,58.0,-100.00,South,185,6.0,11.0,51,0.00,,,0.00,662.000000,,2013-06-20 16:01:00,
2013-06-20 12:12:00,78.0,58.0,-100.00,South,185,6.0,11.0,51,0.00,,,0.00,662.000000,,2013-06-20 16:12:00,
2013-06-20 12:33:00,81.0,61.0,-100.00,SSE,155,7.0,13.0,50,0.00,,,0.00,783.000000,,2013-06-20 16:33:00,
2013-06-20 12:43:00,81.0,61.0,-100.00,SSE,155,7.0,13.0,50,0.00,,,0.00,783.000000,,2013-06-20 16:43:00,
2013-06-20 12:52:00,81.0,61.0,-100.00,SSE,155,7.0,13.0,50,0.00,,,0.00,783.000000,,2013-06-20 16:52:00,
2013-06-20 13:02:00,81.0,61.0,-100.00,SSE,155,7.0,13.0,50,0.00,,,0.00,783.000000,,2013-06-20 17:02:00,
2013-06-20 13:12:00,81.0,61.0,-100.00,SSE,155,7.0,13.0,50,0.00,,,0.00,783.000000,,2013-06-20 17:12:00,
2013-06-20 13:43:00,83.0,58.0,-100.00,SSW,194,8.0,14.0,42,0.00,,,0.00,880.000000,,2013-06-20 17:43:00,
2013-06-20 13:53:00,83.0,58.0,-100.00,SSW,194,8.0,14.0,42,0.00,,,0.00,880.000000,,2013-06-20 17:53:00,
2013-06-20 14:01:00,83.0,58.0,-100.00,SSW,194,8.0,14.0,42,0.00,,,0.00,880.000000,,2013-06-20 18:01:00,
2013-06-20 14:11:00,83.0,58.0,-100.00,SSW,194,8.0,14.0,42,0.00,,,0.00,880.000000,,2013-06-20 18:11:00,
2013-06-20 14:43:00,85.0,56.0,-100.00,SSE,167,10.0,18.0,37,0.00,,,0.00,913.000000,,2013-06-20 18:43:00,
2013-06-20 14:53:00,85.0,56.0,-100.00,SSE,167,10.0,18.0,37,0.00,,,0.00,913.000000,,2013-06-20 18:53:00,
2013-06-20 15:01:00,85.0,56.0,-100.00,SSE,167,10.0,18.0,37,0.00,,,0.00,913.000000,,2013-06-20 19:01:00,
2013-06-20 15:11:00,85.0,56.0,-100.00,SSE,167,10.0,18.0,37,0.00,,,0.00,913.000000,,2013-06-20 19:11:00,
2013-06-20 15:43:00,86.0,60.0,-100.00,SSE,156,9.0,18.0,41,0.00,,,0.00,899.000000,,2013-06-20 19:43:00,
2013-06-20 15:52:00,86.0,60.0,-100.00,SSE,156,9.0,18.0,41,0.00,,,0.00,899.000000,,2013-06-20 19:52:00,
2013-06-20 16:02:00,86.0,60.0,-100.00,SSE,156,9.0,18.0,41,0.00,,,0.00,899.000000,,2013-06-20 20:02:00,
2013-06-20 16:11:00,86.0,60.0,-100.00,SSE,156,9.0,18.0,41,0.00,,,0.00,899.000000,,2013-06-20 20:11:00,
2013-06-20 16:43:00,87.0,55.0,-100.00,SSE,163,8.0,15.0,34,0.00,,,0.00,851.000000,,2013-06-20 20:43:00,
2013-06-20 16:52:00,87.0,55.0,-100.00,SSE,163,8.0,15.0,34,0.00,,,0.00,851.000000,,2013-06-20 20:52:00,
2013-06-20 17:01:00,87.0,55.0,-100.00,SSE,163,8.0,15.0,34,0.00,,,0.00,851.000000,,2013-06-20 21:01:00,